Time,TemperatureF,DewpointF,PressureIn,WindDirection,WindDirectionDegrees,WindSpeedMPH,WindSpeedGustMPH,Humidity,HourlyPrecipIn,Conditions,Clouds,dailyrainin,SoftwareType,DateUTC
2013-05-06 00:01:00,57.7,49.5,29.97,NNE,30,1.0,5.0,74,0.00,,,0.00,Wunderground v.1.15,2013-05-06 04:01:00,
2013-05-06 00:02:00,57.6,49.7,29.97,NNE,30,1.0,5.0,75,0.00,,,0.00,Wunderground v.1.15,2013-05-06 04:02:00,
2013-05-06 00:03:00,57.5,49.6,29.97,NNE,30,1.0,5.0,75,0.00,,,0.00,Wunderground v.1.15,2013-05-06 04:03:00,
2013-05-06 00:04:00,57.5,49.6,29.97,NNE,30,1.0,5.0,75,0.00,,,0.00,Wunderground v.1.15,2013-05-06 04:04:00,
2013-05-06 00:05:00,57.4,49.5,29.97,NNE,30,1.0,5.0,75,0.00,,,0.00,Wunderground v.1.15,2013-05-06 04:05:00,
2013-05-06 00:11:00,57.2,49.3,29.97,NNE,30,0.0,5.0,75,0.00,,,0.00,Wunderground v.1.15,2013-05-06 04:11:00,
2013-05-06 00:17:00,56.7,49.9,29.97,North,360,2.0,5.0,78,0.00,,,0.00,Wunderground v.1.15,2013-05-06 04:17:00,
2013-05-06 00:23:00,56.6,49.1,29.97,NNE,16,3.0,5.0,76,0.00,,,0.00,Wunderground v.1.15,2013-05-06 04:23:00,
2013-05-06 00:29:00,57.3,49.1,29.97,NNE,25,2.0,5.0,74,0.00,,,0.00,Wunderground v.1.15,2013-05-06 04:29:00,
2013-05-06 00:35:00,57.7,48.7,29.97,NNE,13,1.0,5.0,72,0.00,,,0.00,Wunderground v.1.15,2013-05-06 04:35:00,
2013-05-06 00:41:00,57.6,49.4,29.97,North,352,2.0,5.0,74,0.00,,,0.00,Wunderground v.1.15,2013-05-06 04:41:00,
2013-05-06 00:47:00,57.1,50.3,29.96,North,3,2.0,5.0,78,0.00,,,0.00,Wunderground v.1.15,2013-05-06 04:47:00,
2013-05-06 00:53:00,57.1,48.9,29.96,NNE,21,3.0,5.0,74,0.00,,,0.00,Wunderground v.1.15,2013-05-06 04:53:00,
2013-05-06 00:59:00,57.7,48.0,29.96,NNE,19,3.0,5.0,70,0.00,,,0.00,Wunderground v.1.15,2013-05-06 04:59:00,
2013-05-06 01:04:00,57.7,49.5,29.96,NNE,13,3.0,5.0,74,0.00,,,0.00,Wunderground v.1.15,2013-05-06 05:04:00,
2013-05-06 01:10:00,57.8,47.3,29.96,NNE,18,4.0,5.0,68,0.00,,,0.00,Wunderground v.1.15,2013-05-06 05:10:00,
2013-05-06 01:15:00,58.1,46.8,29.96,NNE,15,3.0,5.0,66,0.00,,,0.00,Wunderground v.1.15,2013-05-06 05:15:00,
2013-05-06 01:21:00,58.2,46.1,29.96,NNE,30,3.0,3.0,64,0.00,,,0.00,Wunderground v.1.15,2013-05-06 05:21:00,
2013-05-06 01:27:00,58.1,46.0,29.96,NNE,23,2.0,5.0,64,0.00,,,0.00,Wunderground v.1.15,2013-05-06 05:27:00,
2013-05-06 01:33:00,58.1,45.6,29.96,North,11,3.0,5.0,63,0.00,,,0.00,Wunderground v.1.15,2013-05-06 05:33:00,
2013-05-06 01:39:00,58.0,45.9,29.96,NNE,13,5.0,6.0,64,0.00,,,0.00,Wunderground v.1.15,2013-05-06 05:39:00,
2013-05-06 01:45:00,58.0,45.0,29.96,NE,37,5.0,6.0,62,0.00,,,0.00,Wunderground v.1.15,2013-05-06 05:45:00,
2013-05-06 01:50:00,58.2,44.8,29.95,North,359,5.0,8.0,61,0.00,,,0.00,Wunderground v.1.15,2013-05-06 05:50:00,
2013-05-06 01:55:00,58.3,44.5,29.95,NNE,19,5.0,8.0,60,0.00,,,0.00,Wunderground v.1.15,2013-05-06 05:55:00,
2013-05-06 02:01:00,58.2,44.8,29.95,NE,44,4.0,7.0,61,0.00,,,0.00,Wunderground v.1.15,2013-05-06 06:01:00,
2013-05-06 02:07:00,58.3,44.5,29.95,North,6,3.0,7.0,60,0.00,,,0.00,Wunderground v.1.15,2013-05-06 06:07:00,
2013-05-06 02:13:00,58.3,44.5,29.95,North,9,5.0,8.0,60,0.00,,,0.00,Wunderground v.1.15,2013-05-06 06:13:00,
2013-05-06 02:19:00,58.3,44.5,29.95,NNW,335,7.0,8.0,60,0.00,,,0.00,Wunderground v.1.15,2013-05-06 06:19:00,
2013-05-06 02:25:00,58.4,44.1,29.95,NNE,29,6.0,7.0,59,0.00,,,0.00,Wunderground v.1.15,2013-05-06 06:25:00,
2013-05-06 02:30:00,58.4,44.6,29.95,NNE,14,6.0,7.0,60,0.00,,,0.00,Wunderground v.1.15,2013-05-06 06:30:00,
2013-05-06 02:36:00,58.3,44.5,29.94,NNE,20,6.0,7.0,60,0.00,,,0.00,Wunderground v.1.15,2013-05-06 06:36:00,
2013-05-06 02:42:00,58.3,44.0,29.94,NNE,20,5.0,7.0,59,0.00,,,0.00,Wunderground v.1.15,2013-05-06 06:42:00,
2013-05-06 02:48:00,58.3,44.5,29.94,NE,52,5.0,7.0,60,0.00,,,0.00,Wunderground v.1.15,2013-05-06 06:48:00,
2013-05-06 02:54:00,58.5,44.2,29.94,NE,41,6.0,7.0,59,0.00,,,0.00,Wunderground v.1.15,2013-05-06 06:54:00,
2013-05-06 03:01:00,58.4,44.1,29.94,ENE,59,7.0,7.0,59,0.00,,,0.00,Wunderground v.1.15,2013-05-06 07:01:00,
2013-05-06 03:06:00,58.4,44.1,29.94,NNE,20,6.0,9.0,59,0.00,,,0.00,Wunderground v.1.15,2013-05-06 07:06:00,
2013-05-06 03:11:00,58.3,44.5,29.94,NNE,20,6.0,6.0,60,0.00,,,0.00,Wunderground v.1.15,2013-05-06 07:11:00,
2013-05-06 03:17:00,58.1,44.3,29.93,NE,54,6.0,8.0,60,0.00,,,0.00,Wunderground v.1.15,2013-05-06 07:17:00,
2013-05-06 03:23:00,57.8,44.4,29.93,NE,54,5.0,10.0,61,0.00,,,0.00,Wunderground v.1.15,2013-05-06 07:23:00,
2013-05-06 03:29:00,57.8,44.4,29.93,NE,54,6.0,10.0,61,0.00,,,0.00,Wunderground v.1.15,2013-05-06 07:29:00,
2013-05-06 03:35:00,57.6,44.2,29.93,North,8,7.0,10.0,61,0.00,,,0.00,Wunderground v.1.15,2013-05-06 07:35:00,
2013-05-06 03:41:00,57.5,44.6,29.94,NE,51,6.0,7.0,62,0.00,,,0.00,Wunderground v.1.15,2013-05-06 07:41:00,
2013-05-06 03:47:00,57.3,44.0,29.94,NE,49,6.0,8.0,61,0.00,,,0.00,Wunderground v.1.15,2013-05-06 07:47:00,
2013-05-06 03:52:00,57.2,44.3,29.94,NE,51,6.0,7.0,62,0.00,,,0.00,Wunderground v.1.15,2013-05-06 07:52:00,
2013-05-06 03:58:00,57.2,44.3,29.94,NE,49,6.0,7.0,62,0.00,,,0.00,Wunderground v.1.15,2013-05-06 07:58:00,
2013-05-06 04:04:00,57.1,44.2,29.94,ENE,59,6.0,7.0,62,0.00,,,0.00,Wunderground v.1.15,2013-05-06 08:04:00,
2013-05-06 04:10:00,57.0,44.5,29.94,NE,46,6.0,9.0,63,0.00,,,0.00,Wunderground v.1.15,2013-05-06 08:10:00,
2013-05-06 04:16:00,56.8,44.3,29.94,NE,54,6.0,8.0,63,0.00,,,0.00,Wunderground v.1.15,2013-05-06 08:16:00,
2013-05-06 04:22:00,56.8,44.7,29.94,NNE,27,6.0,8.0,64,0.00,,,0.00,Wunderground v.1.15,2013-05-06 08:22:00,
2013-05-06 04:28:00,56.7,44.7,29.94,NE,47,7.0,8.0,64,0.00,,,0.00,Wunderground v.1.15,2013-05-06 08:28:00,
2013-05-06 04:34:00,56.7,44.7,29.94,NE,44,6.0,7.0,64,0.00,,,0.00,Wunderground v.1.15,2013-05-06 08:34:00,
2013-05-06 04:40:00,56.6,45.0,29.94,ENE,63,6.0,7.0,65,0.00,,,0.00,Wunderground v.1.15,2013-05-06 08:40:00,
2013-05-06 04:45:00,56.5,44.5,29.94,NNE,20,6.0,7.0,64,0.00,,,0.00,Wunderground v.1.15,2013-05-06 08:45:00,
2013-05-06 04:51:00,56.5,44.9,29.94,NE,46,6.0,6.0,65,0.00,,,0.00,Wunderground v.1.15,2013-05-06 08:51:00,
2013-05-06 04:57:00,56.5,44.9,29.94,NE,43,5.0,7.0,65,0.00,,,0.00,Wunderground v.1.15,2013-05-06 08:57:00,
2013-05-06 05:03:00,56.4,45.2,29.94,East,97,4.0,5.0,66,0.00,,,0.00,Wunderground v.1.15,2013-05-06 09:03:00,
2013-05-06 05:09:00,56.5,45.3,29.94,NE,47,4.0,6.0,66,0.00,,,0.00,Wunderground v.1.15,2013-05-06 09:09:00,
2013-05-06 05:15:00,56.3,45.1,29.93,NE,34,4.0,5.0,66,0.00,,,0.00,Wunderground v.1.15,2013-05-06 09:15:00,
2013-05-06 05:21:00,56.2,45.0,29.94,NE,44,4.0,5.0,66,0.00,,,0.00,Wunderground v.1.15,2013-05-06 09:21:00,
2013-05-06 05:26:00,56.2,45.4,29.94,NE,34,4.0,6.0,67,0.00,,,0.00,Wunderground v.1.15,2013-05-06 09:26:00,
2013-05-06 05:32:00,56.2,45.4,29.94,NE,41,4.0,5.0,67,0.00,,,0.00,Wunderground v.1.15,2013-05-06 09:32:00,
2013-05-06 05:38:00,56.1,45.7,29.94,ENE,59,4.0,5.0,68,0.00,,,0.00,Wunderground v.1.15,2013-05-06 09:38:00,
2013-05-06 05:44:00,56.0,45.2,29.94,NE,47,5.0,6.0,67,0.00,,,0.00,Wunderground v.1.15,2013-05-06 09:44:00,
2013-05-06 05:50:00,56.0,45.2,29.95,NE,53,6.0,8.0,67,0.00,,,0.00,Wunderground v.1.15,2013-05-06 09:50:00,
2013-05-06 05:56:00,55.9,45.5,29.95,NE,42,6.0,8.0,68,0.00,,,0.00,Wunderground v.1.15,2013-05-06 09:56:00,
2013-05-06 06:01:00,55.9,45.1,29.95,NE,53,6.0,6.0,67,0.00,,,0.00,Wunderground v.1.15,2013-05-06 10:01:00,
2013-05-06 06:06:00,55.9,45.1,29.95,NE,51,5.0,6.0,67,0.00,,,0.00,Wunderground v.1.15,2013-05-06 10:06:00,
2013-05-06 06:12:00,55.8,45.4,29.95,NE,39,5.0,5.0,68,0.00,,,0.00,Wunderground v.1.15,2013-05-06 10:12:00,
2013-05-06 06:18:00,55.7,45.3,29.95,NNE,30,6.0,10.0,68,0.00,,,0.00,Wunderground v.1.15,2013-05-06 10:18:00,
2013-05-06 06:24:00,55.4,45.4,29.95,NNE,18,5.0,6.0,69,0.00,,,0.00,Wunderground v.1.15,2013-05-06 10:24:00,
2013-05-06 06:30:00,55.2,45.2,29.95,NE,47,4.0,6.0,69,0.00,,,0.00,Wunderground v.1.15,2013-05-06 10:30:00,
2013-05-06 06:35:00,55.1,45.5,29.95,NE,53,4.0,5.0,70,0.00,,,0.00,Wunderground v.1.15,2013-05-06 10:35:00,
2013-05-06 06:41:00,55.0,45.4,29.96,NE,53,4.0,5.0,70,0.00,,,0.00,Wunderground v.1.15,2013-05-06 10:41:00,
2013-05-06 06:47:00,55.0,45.4,29.95,NNE,24,4.0,5.0,70,0.00,,,0.00,Wunderground v.1.15,2013-05-06 10:47:00,
2013-05-06 06:53:00,55.0,45.8,29.95,North,8,4.0,6.0,71,0.00,,,0.00,Wunderground v.1.15,2013-05-06 10:53:00,
2013-05-06 06:59:00,55.0,45.8,29.96,NE,51,5.0,6.0,71,0.00,,,0.00,Wunderground v.1.15,2013-05-06 10:59:00,
2013-05-06 07:05:00,55.0,45.8,29.96,NE,36,4.0,5.0,71,0.00,,,0.00,Wunderground v.1.15,2013-05-06 11:05:00,
2013-05-06 07:11:00,54.9,45.7,29.96,NNE,13,4.0,4.0,71,0.00,,,0.00,Wunderground v.1.15,2013-05-06 11:11:00,
2013-05-06 07:16:00,55.0,45.8,29.96,NE,44,4.0,6.0,71,0.00,,,0.00,Wunderground v.1.15,2013-05-06 11:16:00,
2013-05-06 07:22:00,55.1,45.5,29.96,NNE,20,4.0,8.0,70,0.00,,,0.00,Wunderground v.1.15,2013-05-06 11:22:00,
2013-05-06 07:28:00,55.2,45.6,29.96,ENE,70,5.0,8.0,70,0.00,,,0.00,Wunderground v.1.15,2013-05-06 11:28:00,
2013-05-06 07:34:00,55.3,45.7,29.97,NNE,12,6.0,7.0,70,0.00,,,0.00,Wunderground v.1.15,2013-05-06 11:34:00,
2013-05-06 07:40:00,55.3,46.1,29.97,NNE,23,6.0,7.0,71,0.00,,,0.00,Wunderground v.1.15,2013-05-06 11:40:00,
2013-05-06 07:46:00,55.4,46.2,29.97,North,11,5.0,6.0,71,0.00,,,0.00,Wunderground v.1.15,2013-05-06 11:46:00,
2013-05-06 07:52:00,55.4,46.2,29.97,North,11,4.0,5.0,71,0.00,,,0.00,Wunderground v.1.15,2013-05-06 11:52:00,
2013-05-06 07:57:00,55.5,46.2,29.97,North,360,5.0,7.0,71,0.00,,,0.00,Wunderground v.1.15,2013-05-06 11:57:00,
2013-05-06 08:03:00,55.6,46.3,29.98,NNW,339,5.0,5.0,71,0.00,,,0.00,Wunderground v.1.15,2013-05-06 12:03:00,
2013-05-06 08:09:00,55.8,46.2,29.98,NE,51,4.0,6.0,70,0.00,,,0.00,Wunderground v.1.15,2013-05-06 12:09:00,
2013-05-06 08:15:00,56.0,46.4,29.98,NNW,345,5.0,6.0,70,0.00,,,0.00,Wunderground v.1.15,2013-05-06 12:15:00,
2013-05-06 08:21:00,56.2,46.5,29.99,NNE,32,5.0,5.0,70,0.00,,,0.00,Wunderground v.1.15,2013-05-06 12:21:00,
2013-05-06 08:27:00,56.4,46.4,29.99,NNE,15,4.0,7.0,69,0.00,,,0.00,Wunderground v.1.15,2013-05-06 12:27:00,
2013-05-06 08:33:00,56.6,46.9,29.99,NE,51,4.0,5.0,70,0.00,,,0.00,Wunderground v.1.15,2013-05-06 12:33:00,
2013-05-06 08:38:00,56.7,47.0,29.99,NE,46,5.0,5.0,70,0.00,,,0.00,Wunderground v.1.15,2013-05-06 12:38:00,
2013-05-06 08:44:00,56.9,47.2,29.99,NE,52,4.0,7.0,70,0.00,,,0.00,Wunderground v.1.15,2013-05-06 12:44:00,
2013-05-06 08:50:00,57.2,47.5,29.99,NE,50,5.0,7.0,70,0.00,,,0.00,Wunderground v.1.15,2013-05-06 12:50:00,
2013-05-06 08:56:00,57.4,46.9,29.99,NE,53,4.0,7.0,68,0.00,,,0.00,Wunderground v.1.15,2013-05-06 12:56:00,
2013-05-06 09:02:00,57.7,46.8,29.99,NE,47,5.0,7.0,67,0.00,,,0.00,Wunderground v.1.15,2013-05-06 13:02:00,
2013-05-06 09:08:00,57.9,47.0,30.00,NE,38,7.0,11.0,67,0.00,,,0.00,Wunderground v.1.15,2013-05-06 13:08:00,
2013-05-06 09:14:00,58.2,47.3,30.00,NNE,15,6.0,7.0,67,0.00,,,0.00,Wunderground v.1.15,2013-05-06 13:14:00,
2013-05-06 09:20:00,58.6,47.3,30.00,NNE,32,5.0,8.0,66,0.00,,,0.00,Wunderground v.1.15,2013-05-06 13:20:00,
2013-05-06 09:25:00,59.0,47.7,30.00,NE,46,5.0,6.0,66,0.00,,,0.00,Wunderground v.1.15,2013-05-06 13:25:00,
2013-05-06 09:31:00,59.4,48.0,30.00,NE,51,6.0,9.0,66,0.00,,,0.00,Wunderground v.1.15,2013-05-06 13:31:00,
2013-05-06 09:37:00,60.1,48.3,30.00,NE,54,6.0,9.0,65,0.00,,,0.00,Wunderground v.1.15,2013-05-06 13:37:00,
2013-05-06 09:43:00,61.4,48.7,30.00,NE,53,6.0,10.0,63,0.00,,,0.00,Wunderground v.1.15,2013-05-06 13:43:00,
2013-05-06 09:49:00,62.3,49.1,30.00,NE,56,8.0,11.0,62,0.00,,,0.00,Wunderground v.1.15,2013-05-06 13:49:00,
2013-05-06 09:55:00,63.1,48.5,29.99,NNE,33,7.0,11.0,59,0.00,,,0.00,Wunderground v.1.15,2013-05-06 13:55:00,
2013-05-06 10:01:00,63.5,49.4,29.99,NE,46,8.0,8.0,60,0.00,,,0.00,Wunderground v.1.15,2013-05-06 14:01:00,
2013-05-06 10:06:00,64.0,49.4,29.99,ENE,59,7.0,9.0,59,0.00,,,0.00,Wunderground v.1.15,2013-05-06 14:06:00,
2013-05-06 10:12:00,64.0,50.3,30.00,NE,51,7.0,9.0,61,0.00,,,0.00,Wunderground v.1.15,2013-05-06 14:12:00,
2013-05-06 10:17:00,64.0,49.8,30.00,NE,47,8.0,13.0,60,0.00,,,0.00,Wunderground v.1.15,2013-05-06 14:17:00,
2013-05-06 10:23:00,63.8,49.2,30.00,NE,41,9.0,13.0,59,0.00,,,0.00,Wunderground v.1.15,2013-05-06 14:23:00,
2013-05-06 10:29:00,63.9,49.7,30.00,NW,323,10.0,13.0,60,0.00,,,0.00,Wunderground v.1.15,2013-05-06 14:29:00,
2013-05-06 10:35:00,64.6,49.9,29.99,NE,44,8.0,13.0,59,0.00,,,0.00,Wunderground v.1.15,2013-05-06 14:35:00,
2013-05-06 10:41:00,65.0,48.9,29.99,NE,46,9.0,11.0,56,0.00,,,0.00,Wunderground v.1.15,2013-05-06 14:41:00,
2013-05-06 10:47:00,65.3,50.1,29.99,NE,43,8.0,11.0,58,0.00,,,0.00,Wunderground v.1.15,2013-05-06 14:47:00,
2013-05-06 10:53:00,65.6,50.4,29.99,NE,41,8.0,14.0,58,0.00,,,0.00,Wunderground v.1.15,2013-05-06 14:53:00,
2013-05-06 10:59:00,66.2,50.5,29.99,NE,56,8.0,14.0,57,0.00,,,0.00,Wunderground v.1.15,2013-05-06 14:59:00,
2013-05-06 11:04:00,66.2,50.5,29.99,East,86,8.0,12.0,57,0.00,,,0.00,Wunderground v.1.15,2013-05-06 15:04:00,
2013-05-06 11:10:00,66.0,50.8,29.99,West,281,8.0,12.0,58,0.00,,,0.00,Wunderground v.1.15,2013-05-06 15:10:00,
2013-05-06 11:16:00,66.2,51.4,29.99,ESE,113,8.0,12.0,59,0.00,,,0.00,Wunderground v.1.15,2013-05-06 15:16:00,
2013-05-06 11:22:00,66.7,51.0,29.99,NNE,25,7.0,8.0,57,0.00,,,0.00,Wunderground v.1.15,2013-05-06 15:22:00,
2013-05-06 11:28:00,66.4,51.2,29.99,NE,39,8.0,14.0,58,0.00,,,0.00,Wunderground v.1.15,2013-05-06 15:28:00,
2013-05-06 11:34:00,66.3,51.1,29.99,NW,305,9.0,10.0,58,0.00,,,0.00,Wunderground v.1.15,2013-05-06 15:34:00,
2013-05-06 11:40:00,67.0,51.7,29.99,NE,52,9.0,15.0,58,0.00,,,0.00,Wunderground v.1.15,2013-05-06 15:40:00,
2013-05-06 11:45:00,67.0,51.7,29.99,SE,128,10.0,10.0,58,0.00,,,0.00,Wunderground v.1.15,2013-05-06 15:45:00,
2013-05-06 11:51:00,67.3,51.5,29.99,ESE,106,9.0,14.0,57,0.00,,,0.00,Wunderground v.1.15,2013-05-06 15:51:00,
2013-05-06 11:57:00,67.4,51.2,29.99,NE,53,9.0,14.0,56,0.00,,,0.00,Wunderground v.1.15,2013-05-06 15:57:00,
2013-05-06 12:03:00,67.6,51.8,29.99,NE,37,9.0,14.0,57,0.00,,,0.00,Wunderground v.1.15,2013-05-06 16:03:00,
2013-05-06 12:09:00,67.6,51.8,29.99,East,90,8.0,14.0,57,0.00,,,0.00,Wunderground v.1.15,2013-05-06 16:09:00,
2013-05-06 12:15:00,68.2,51.9,29.99,NE,53,8.0,9.0,56,0.00,,,0.00,Wunderground v.1.15,2013-05-06 16:15:00,
2013-05-06 12:21:00,68.0,52.2,29.98,NE,48,8.0,8.0,57,0.00,,,0.00,Wunderground v.1.15,2013-05-06 16:21:00,
2013-05-06 12:27:00,67.9,51.6,29.99,NE,55,9.0,11.0,56,0.00,,,0.00,Wunderground v.1.15,2013-05-06 16:27:00,
2013-05-06 12:33:00,68.2,52.4,29.99,South,181,9.0,13.0,57,0.00,,,0.00,Wunderground v.1.15,2013-05-06 16:33:00,
2013-05-06 12:38:00,67.8,52.0,29.99,NE,46,9.0,15.0,57,0.00,,,0.00,Wunderground v.1.15,2013-05-06 16:38:00,
2013-05-06 12:44:00,67.2,51.4,29.99,NE,38,9.0,10.0,57,0.00,,,0.00,Wunderground v.1.15,2013-05-06 16:44:00,
2013-05-06 12:50:00,67.0,52.2,29.99,NNE,18,7.0,11.0,59,0.00,,,0.00,Wunderground v.1.15,2013-05-06 16:50:00,
2013-05-06 12:56:00,67.0,51.7,29.99,NNW,334,8.0,11.0,58,0.00,,,0.00,Wunderground v.1.15,2013-05-06 16:56:00,
2013-05-06 13:02:00,67.4,52.6,29.99,East,79,7.0,7.0,59,0.00,,,0.00,Wunderground v.1.15,2013-05-06 17:02:00,
2013-05-06 13:08:00,67.7,52.9,29.99,ENE,62,7.0,10.0,59,0.00,,,0.00,Wunderground v.1.15,2013-05-06 17:08:00,
2013-05-06 13:14:00,67.5,52.7,29.98,NE,38,7.0,9.0,59,0.00,,,0.00,Wunderground v.1.15,2013-05-06 17:14:00,
2013-05-06 13:20:00,67.3,52.5,29.98,East,86,8.0,11.0,59,0.00,,,0.00,Wunderground v.1.15,2013-05-06 17:20:00,
2013-05-06 13:25:00,67.4,53.0,29.98,NE,52,8.0,14.0,60,0.00,,,0.00,Wunderground v.1.15,2013-05-06 17:25:00,
2013-05-06 13:31:00,66.9,52.6,29.98,NE,52,9.0,16.0,60,0.00,,,0.00,Wunderground v.1.15,2013-05-06 17:31:00,
2013-05-06 13:37:00,66.3,52.4,29.98,NE,50,10.0,16.0,61,0.00,,,0.00,Wunderground v.1.15,2013-05-06 17:37:00,
2013-05-06 13:43:00,66.0,52.2,29.99,NE,55,10.0,12.0,61,0.00,,,0.00,Wunderground v.1.15,2013-05-06 17:43:00,
2013-05-06 13:49:00,65.9,52.1,29.99,NE,52,9.0,12.0,61,0.00,,,0.00,Wunderground v.1.15,2013-05-06 17:49:00,
2013-05-06 13:55:00,66.1,52.7,29.99,SE,128,8.0,10.0,62,0.00,,,0.00,Wunderground v.1.15,2013-05-06 17:55:00,
2013-05-06 14:01:00,66.0,52.6,29.98,SE,131,8.0,8.0,62,0.00,,,0.00,Wunderground v.1.15,2013-05-06 18:01:00,
2013-05-06 14:06:00,66.3,52.4,29.99,NW,323,7.0,13.0,61,0.00,,,0.00,Wunderground v.1.15,2013-05-06 18:06:00,
2013-05-06 14:12:00,66.1,52.3,29.99,ENE,73,7.0,9.0,61,0.00,,,0.00,Wunderground v.1.15,2013-05-06 18:12:00,
2013-05-06 14:18:00,66.2,52.3,29.98,ENE,61,8.0,12.0,61,0.00,,,0.00,Wunderground v.1.15,2013-05-06 18:18:00,
2013-05-06 14:24:00,66.2,52.3,29.99,West,259,7.0,8.0,61,0.00,,,0.00,Wunderground v.1.15,2013-05-06 18:24:00,
2013-05-06 14:30:00,66.4,52.1,29.99,ESE,104,6.0,8.0,60,0.00,,,0.00,Wunderground v.1.15,2013-05-06 18:30:00,
2013-05-06 14:36:00,66.3,52.4,29.99,NE,46,7.0,13.0,61,0.00,,,0.00,Wunderground v.1.15,2013-05-06 18:36:00,
2013-05-06 14:42:00,66.2,51.9,29.99,ENE,64,9.0,10.0,60,0.00,,,0.00,Wunderground v.1.15,2013-05-06 18:42:00,
2013-05-06 14:48:00,65.7,51.9,29.99,NE,46,9.0,10.0,61,0.00,,,0.00,Wunderground v.1.15,2013-05-06 18:48:00,
2013-05-06 14:53:00,65.8,52.0,29.99,ESE,114,9.0,12.0,61,0.00,,,0.00,Wunderground v.1.15,2013-05-06 18:53:00,
2013-05-06 14:59:00,65.7,51.9,29.98,West,266,9.0,12.0,61,0.00,,,0.00,Wunderground v.1.15,2013-05-06 18:59:00,
2013-05-06 15:05:00,65.8,52.0,29.98,SW,218,9.0,9.0,61,0.00,,,0.00,Wunderground v.1.15,2013-05-06 19:05:00,
2013-05-06 15:11:00,65.9,52.1,29.98,ENE,63,8.0,9.0,61,0.00,,,0.00,Wunderground v.1.15,2013-05-06 19:11:00,
2013-05-06 15:17:00,65.8,52.4,29.98,NNE,23,8.0,12.0,62,0.00,,,0.00,Wunderground v.1.15,2013-05-06 19:17:00,
2013-05-06 15:23:00,65.6,52.7,29.98,ENE,60,9.0,12.0,63,0.00,,,0.00,Wunderground v.1.15,2013-05-06 19:23:00,
2013-05-06 15:29:00,65.6,52.7,29.98,NE,42,9.0,12.0,63,0.00,,,0.00,Wunderground v.1.15,2013-05-06 19:29:00,
2013-05-06 15:35:00,65.8,52.9,29.98,SSW,203,8.0,12.0,63,0.00,,,0.00,Wunderground v.1.15,2013-05-06 19:35:00,
2013-05-06 15:40:00,65.9,52.9,29.98,North,8,8.0,12.0,63,0.00,,,0.00,Wunderground v.1.15,2013-05-06 19:40:00,
2013-05-06 15:46:00,65.9,52.9,29.97,East,84,8.0,11.0,63,0.00,,,0.00,Wunderground v.1.15,2013-05-06 19:46:00,
2013-05-06 15:52:00,65.6,53.5,29.97,NNW,339,7.0,8.0,65,0.00,,,0.00,Wunderground v.1.15,2013-05-06 19:52:00,
2013-05-06 15:58:00,65.4,52.9,29.97,NW,312,8.0,9.0,64,0.00,,,0.00,Wunderground v.1.15,2013-05-06 19:58:00,
2013-05-06 16:04:00,65.1,53.5,29.97,NE,37,8.0,10.0,66,0.00,,,0.00,Wunderground v.1.15,2013-05-06 20:04:00,
2013-05-06 16:09:00,64.9,53.7,29.97,NE,49,8.0,14.0,67,0.00,,,0.00,Wunderground v.1.15,2013-05-06 20:09:00,
2013-05-06 16:15:00,64.6,53.4,29.97,NE,46,8.0,15.0,67,0.00,,,0.00,Wunderground v.1.15,2013-05-06 20:15:00,
2013-05-06 16:21:00,64.6,53.8,29.97,NE,44,9.0,9.0,68,0.00,,,0.00,Wunderground v.1.15,2013-05-06 20:21:00,
2013-05-06 16:27:00,64.6,53.8,29.96,East,79,9.0,14.0,68,0.00,,,0.00,Wunderground v.1.15,2013-05-06 20:27:00,
2013-05-06 16:33:00,64.6,53.8,29.97,NE,56,9.0,13.0,68,0.00,,,0.00,Wunderground v.1.15,2013-05-06 20:33:00,
2013-05-06 16:39:00,64.3,53.5,29.96,NE,46,9.0,13.0,68,0.00,,,0.00,Wunderground v.1.15,2013-05-06 20:39:00,
2013-05-06 16:45:00,64.3,54.3,29.96,NE,46,9.0,11.0,70,0.00,,,0.00,Wunderground v.1.15,2013-05-06 20:45:00,
2013-05-06 16:50:00,64.7,53.5,29.96,NNE,23,8.0,11.0,67,0.00,,,0.00,Wunderground v.1.15,2013-05-06 20:50:00,
2013-05-06 16:56:00,65.1,53.5,29.96,East,96,8.0,10.0,66,0.00,,,0.00,Wunderground v.1.15,2013-05-06 20:56:00,
2013-05-06 17:02:00,65.4,53.7,29.95,WNW,298,7.0,8.0,66,0.00,,,0.00,Wunderground v.1.15,2013-05-06 21:02:00,
2013-05-06 17:08:00,65.4,52.9,29.95,East,83,7.0,10.0,64,0.00,,,0.00,Wunderground v.1.15,2013-05-06 21:08:00,
2013-05-06 17:14:00,65.2,52.7,29.95,NE,46,8.0,8.0,64,0.00,,,0.00,Wunderground v.1.15,2013-05-06 21:14:00,
2013-05-06 17:20:00,65.2,52.3,29.95,ENE,72,7.0,10.0,63,0.00,,,0.00,Wunderground v.1.15,2013-05-06 21:20:00,
2013-05-06 17:26:00,65.1,52.2,29.95,NE,39,8.0,16.0,63,0.00,,,0.00,Wunderground v.1.15,2013-05-06 21:26:00,
2013-05-06 17:31:00,65.0,52.5,29.95,NE,51,9.0,9.0,64,0.00,,,0.00,Wunderground v.1.15,2013-05-06 21:31:00,
2013-05-06 17:37:00,64.9,52.4,29.95,NNE,33,8.0,10.0,64,0.00,,,0.00,Wunderground v.1.15,2013-05-06 21:37:00,
2013-05-06 17:43:00,64.7,53.1,29.95,NE,50,6.0,8.0,66,0.00,,,0.00,Wunderground v.1.15,2013-05-06 21:43:00,
2013-05-06 17:49:00,64.7,53.1,29.95,NE,48,6.0,8.0,66,0.00,,,0.00,Wunderground v.1.15,2013-05-06 21:49:00,
2013-05-06 17:55:00,64.7,53.1,29.95,East,99,5.0,8.0,66,0.00,,,0.00,Wunderground v.1.15,2013-05-06 21:55:00,
2013-05-06 18:01:00,64.9,53.3,29.95,NE,56,6.0,7.0,66,0.00,,,0.00,Wunderground v.1.15,2013-05-06 22:01:00,
2013-05-06 18:06:00,65.0,53.8,29.95,WSW,256,7.0,9.0,67,0.00,,,0.00,Wunderground v.1.15,2013-05-06 22:06:00,
2013-05-06 18:11:00,65.2,54.0,29.95,ENE,61,6.0,6.0,67,0.00,,,0.00,Wunderground v.1.15,2013-05-06 22:11:00,
2013-05-06 18:17:00,65.5,54.2,29.95,ENE,76,5.0,6.0,67,0.00,,,0.00,Wunderground v.1.15,2013-05-06 22:17:00,
2013-05-06 18:23:00,66.1,54.8,29.95,ENE,68,3.0,5.0,67,0.00,,,0.00,Wunderground v.1.15,2013-05-06 22:23:00,
2013-05-06 18:29:00,66.3,54.6,29.95,East,79,3.0,10.0,66,0.00,,,0.00,Wunderground v.1.15,2013-05-06 22:29:00,
2013-05-06 18:35:00,66.7,53.7,29.95,ENE,64,5.0,9.0,63,0.00,,,0.00,Wunderground v.1.15,2013-05-06 22:35:00,
2013-05-06 18:40:00,67.0,53.5,29.95,East,84,6.0,9.0,62,0.00,,,0.00,Wunderground v.1.15,2013-05-06 22:40:00,
2013-05-06 18:46:00,67.2,53.7,29.95,SE,124,4.0,7.0,62,0.00,,,0.00,Wunderground v.1.15,2013-05-06 22:46:00,
2013-05-06 18:52:00,67.5,53.6,29.95,NE,34,4.0,5.0,61,0.00,,,0.00,Wunderground v.1.15,2013-05-06 22:52:00,
2013-05-06 18:58:00,68.1,54.1,29.95,NNE,13,4.0,6.0,61,0.00,,,0.00,Wunderground v.1.15,2013-05-06 22:58:00,
2013-05-06 19:04:00,68.5,54.1,29.95,NE,49,2.0,5.0,60,0.00,,,0.00,Wunderground v.1.15,2013-05-06 23:04:00,
2013-05-06 19:10:00,68.2,52.9,29.95,NE,36,5.0,5.0,58,0.00,,,0.00,Wunderground v.1.15,2013-05-06 23:10:00,
2013-05-06 19:16:00,68.3,52.9,29.95,NE,43,6.0,6.0,58,0.00,,,0.00,Wunderground v.1.15,2013-05-06 23:16:00,
2013-05-06 19:22:00,68.3,53.4,29.95,NE,49,3.0,5.0,59,0.00,,,0.00,Wunderground v.1.15,2013-05-06 23:22:00,
2013-05-06 19:28:00,68.1,52.8,29.95,NE,43,4.0,9.0,58,0.00,,,0.00,Wunderground v.1.15,2013-05-06 23:28:00,
2013-05-06 19:33:00,68.2,53.3,29.95,NE,48,5.0,5.0,59,0.00,,,0.00,Wunderground v.1.15,2013-05-06 23:33:00,
2013-05-06 19:39:00,68.5,53.6,29.95,NNE,18,4.0,6.0,59,0.00,,,0.00,Wunderground v.1.15,2013-05-06 23:39:00,
2013-05-06 19:45:00,68.6,53.7,29.95,NNE,18,4.0,6.0,59,0.00,,,0.00,Wunderground v.1.15,2013-05-06 23:45:00,
2013-05-06 19:51:00,68.4,53.5,29.95,NNE,26,4.0,5.0,59,0.00,,,0.00,Wunderground v.1.15,2013-05-06 23:51:00,
2013-05-06 19:57:00,68.0,53.6,29.95,NE,55,4.0,6.0,60,0.00,,,0.00,Wunderground v.1.15,2013-05-06 23:57:00,
2013-05-06 20:03:00,67.7,53.3,29.96,NNW,343,3.0,5.0,60,0.00,,,0.00,Wunderground v.1.15,2013-05-07 00:03:00,
2013-05-06 20:08:00,67.4,53.5,29.96,NNE,15,3.0,5.0,61,0.00,,,0.00,Wunderground v.1.15,2013-05-07 00:08:00,
2013-05-06 20:14:00,67.0,54.0,29.96,NNW,345,2.0,5.0,63,0.00,,,0.00,Wunderground v.1.15,2013-05-07 00:14:00,
2013-05-06 20:20:00,66.7,53.7,29.96,North,350,3.0,5.0,63,0.00,,,0.00,Wunderground v.1.15,2013-05-07 00:20:00,
2013-05-06 20:26:00,66.4,53.4,29.97,NNE,12,2.0,5.0,63,0.00,,,0.00,Wunderground v.1.15,2013-05-07 00:26:00,
2013-05-06 20:32:00,66.2,53.7,29.97,NNE,26,2.0,5.0,64,0.00,,,0.00,Wunderground v.1.15,2013-05-07 00:32:00,
2013-05-06 20:38:00,65.9,53.8,29.97,North,9,3.0,5.0,65,0.00,,,0.00,Wunderground v.1.15,2013-05-07 00:38:00,
2013-05-06 20:44:00,65.8,53.7,29.97,NNE,18,3.0,5.0,65,0.00,,,0.00,Wunderground v.1.15,2013-05-07 00:44:00,
2013-05-06 20:50:00,65.7,53.2,29.97,NNE,21,3.0,5.0,64,0.00,,,0.00,Wunderground v.1.15,2013-05-07 00:50:00,
2013-05-06 20:55:00,65.5,53.4,29.97,NNE,22,2.0,5.0,65,0.00,,,0.00,Wunderground v.1.15,2013-05-07 00:55:00,
2013-05-06 21:01:00,65.4,53.3,29.97,NNE,23,2.0,2.0,65,0.00,,,0.00,Wunderground v.1.15,2013-05-07 01:01:00,
2013-05-06 21:06:00,65.2,53.1,29.97,NNE,23,1.0,5.0,65,0.00,,,0.00,Wunderground v.1.15,2013-05-07 01:06:00,
2013-05-06 21:12:00,64.7,53.9,29.97,NNE,23,0.0,5.0,68,0.00,,,0.00,Wunderground v.1.15,2013-05-07 01:12:00,
2013-05-06 21:18:00,63.9,53.1,29.97,NNE,23,1.0,5.0,68,0.00,,,0.00,Wunderground v.1.15,2013-05-07 01:18:00,
2013-05-06 21:23:00,63.9,54.3,29.97,NNE,14,1.0,5.0,71,0.00,,,0.00,Wunderground v.1.15,2013-05-07 01:23:00,
2013-05-06 21:29:00,63.6,54.4,29.97,NNW,340,2.0,5.0,72,0.00,,,0.00,Wunderground v.1.15,2013-05-07 01:29:00,
2013-05-06 21:35:00,63.5,54.3,29.97,NNW,336,1.0,5.0,72,0.00,,,0.00,Wunderground v.1.15,2013-05-07 01:35:00,
2013-05-06 21:41:00,63.3,54.5,29.97,NNW,336,1.0,5.0,73,0.00,,,0.00,Wunderground v.1.15,2013-05-07 01:41:00,
2013-05-06 21:47:00,63.1,54.3,29.97,NNW,335,0.0,5.0,73,0.00,,,0.00,Wunderground v.1.15,2013-05-07 01:47:00,
2013-05-06 21:53:00,62.9,54.1,29.97,NNW,333,0.0,5.0,73,0.00,,,0.00,Wunderground v.1.15,2013-05-07 01:53:00,
2013-05-06 21:59:00,62.7,53.9,29.97,NNW,331,1.0,5.0,73,0.00,,,0.00,Wunderground v.1.15,2013-05-07 01:59:00,
2013-05-06 22:04:00,62.3,54.3,29.98,South,185,2.0,5.0,75,0.00,,,0.00,Wunderground v.1.15,2013-05-07 02:04:00,
2013-05-06 22:10:00,62.3,53.9,29.98,SSW,208,3.0,5.0,74,0.00,,,0.00,Wunderground v.1.15,2013-05-07 02:10:00,
2013-05-06 22:16:00,62.3,54.3,29.98,SSW,208,1.0,5.0,75,0.00,,,0.00,Wunderground v.1.15,2013-05-07 02:16:00,
2013-05-06 22:22:00,61.9,54.2,29.98,SW,225,1.0,5.0,76,0.00,,,0.00,Wunderground v.1.15,2013-05-07 02:22:00,
2013-05-06 22:28:00,61.1,54.5,29.98,NW,317,1.0,5.0,79,0.00,,,0.00,Wunderground v.1.15,2013-05-07 02:28:00,
2013-05-06 22:34:00,61.2,53.9,29.98,WNW,294,1.0,5.0,77,0.00,,,0.00,Wunderground v.1.15,2013-05-07 02:34:00,
2013-05-06 22:40:00,61.3,54.7,29.99,SSW,213,1.0,5.0,79,0.00,,,0.00,Wunderground v.1.15,2013-05-07 02:40:00,
2013-05-06 22:46:00,61.0,54.4,29.99,SSW,212,1.0,5.0,79,0.00,,,0.00,Wunderground v.1.15,2013-05-07 02:46:00,
2013-05-06 22:51:00,61.0,54.4,29.98,SSW,211,1.0,5.0,79,0.00,,,0.00,Wunderground v.1.15,2013-05-07 02:51:00,
2013-05-06 22:57:00,60.9,54.3,29.98,SSW,212,1.0,5.0,79,0.00,,,0.00,Wunderground v.1.15,2013-05-07 02:57:00,
2013-05-06 23:03:00,60.9,54.3,29.99,NNW,345,0.0,5.0,79,0.00,,,0.00,Wunderground v.1.15,2013-05-07 03:03:00,
2013-05-06 23:09:00,60.5,54.3,29.99,NNW,344,1.0,5.0,80,0.00,,,0.00,Wunderground v.1.15,2013-05-07 03:09:00,
2013-05-06 23:15:00,60.6,54.4,29.99,NNW,344,0.0,5.0,80,0.00,,,0.00,Wunderground v.1.15,2013-05-07 03:15:00,
2013-05-06 23:21:00,60.5,54.3,29.99,NNW,344,0.0,5.0,80,0.00,,,0.00,Wunderground v.1.15,2013-05-07 03:21:00,
2013-05-06 23:26:00,60.4,54.5,29.98,NNW,344,1.0,5.0,81,0.00,,,0.00,Wunderground v.1.15,2013-05-07 03:26:00,
2013-05-06 23:32:00,60.4,53.9,29.98,NNW,344,1.0,5.0,79,0.00,,,0.00,Wunderground v.1.15,2013-05-07 03:32:00,
2013-05-06 23:38:00,60.5,54.6,29.98,NNW,345,1.0,5.0,81,0.00,,,0.00,Wunderground v.1.15,2013-05-07 03:38:00,
2013-05-06 23:44:00,60.6,54.0,29.98,NNW,342,1.0,5.0,79,0.00,,,0.00,Wunderground v.1.15,2013-05-07 03:44:00,
2013-05-06 23:50:00,60.5,54.0,29.98,NNW,342,0.0,5.0,79,0.00,,,0.00,Wunderground v.1.15,2013-05-07 03:50:00,
2013-05-06 23:55:00,60.4,54.2,29.98,NNW,342,0.0,5.0,80,0.00,,,0.00,Wunderground v.1.15,2013-05-07 03:55:00,